createdAt,value
2023-04-15T00:03:04.407Z,1.33
2023-04-15T00:08:06.664Z,2.08
2023-04-15T00:13:08.753Z,2.50
2023-04-15T00:18:10.858Z,1.33
2023-04-15T00:23:12.921Z,0.95
2023-04-15T00:28:15.101Z,3.10
2023-04-15T00:33:17.916Z,2.15
2023-04-15T00:38:20.323Z,1.33
2023-04-15T00:43:22.451Z,1.10
2023-04-15T00:48:25.031Z,1.73
2023-04-15T00:53:27.172Z,2.15
2023-04-15T00:58:29.422Z,5.13
2023-04-15T01:03:31.864Z,2.30
2023-04-15T01:08:34.166Z,5.38
2023-04-15T01:13:36.930Z,2.33
2023-04-15T01:18:40.432Z,1.58
2023-04-15T01:23:47.382Z,2.42
2023-04-15T01:28:49.564Z,1.67
2023-04-15T01:33:52.182Z,2.92
2023-04-15T01:38:55.695Z,1.88
2023-04-15T01:43:57.853Z,4.22
2023-04-15T01:49:00.131Z,2.15
2023-04-15T01:54:02.398Z,3.92
2023-04-15T01:59:05.389Z,3.85
2023-04-15T02:04:08.337Z,0.98
2023-04-15T02:09:10.934Z,3.53
2023-04-15T02:14:13.083Z,2.28
2023-04-15T02:19:16.270Z,3.13
2023-04-15T02:24:18.459Z,3.83
2023-04-15T02:29:20.602Z,2.90
2023-04-15T02:34:22.719Z,1.55
2023-04-15T02:39:24.748Z,2.63
2023-04-15T02:44:27.720Z,3.35
2023-04-15T02:49:34.053Z,2.33
2023-04-15T02:54:36.538Z,1.52
2023-04-15T02:59:39.618Z,2.50
2023-04-15T03:04:41.705Z,2.15
2023-04-15T03:09:43.776Z,2.20
2023-04-15T03:14:46.136Z,3.47
2023-04-15T03:19:48.327Z,1.38
2023-04-15T03:24:51.230Z,1.83
2023-04-15T03:29:53.413Z,2.38
2023-04-15T03:34:59.116Z,1.55
2023-04-15T03:40:01.236Z,4.57
2023-04-15T03:45:03.765Z,2.13
2023-04-15T03:50:06.433Z,2.88
2023-04-15T03:55:09.610Z,1.75
2023-04-15T04:00:11.965Z,1.83
2023-04-15T04:05:13.958Z,2.28
2023-04-15T04:10:16.075Z,1.83
2023-04-15T04:15:18.299Z,3.35
2023-04-15T04:20:20.429Z,2.40
2023-04-15T04:25:22.649Z,1.45
2023-04-15T04:30:25.111Z,1.20
2023-04-15T04:35:28.079Z,1.88
2023-04-15T04:40:30.942Z,2.15
2023-04-15T04:45:33.078Z,1.67
2023-04-15T04:50:36.068Z,1.70
2023-04-15T04:55:38.067Z,2.72
2023-04-15T05:00:40.978Z,1.48
2023-04-15T05:05:43.668Z,1.27
2023-04-15T05:10:45.911Z,2.50
2023-04-15T05:15:48.155Z,1.75
2023-04-15T05:20:50.504Z,0.73
2023-04-15T05:25:52.639Z,1.40
2023-04-15T05:30:54.924Z,1.55
2023-04-15T05:35:57.168Z,0.75
2023-04-15T05:40:59.333Z,1.10
2023-04-15T05:46:01.551Z,1.05
2023-04-15T05:51:03.714Z,1.13
2023-04-15T05:56:05.909Z,1.23
2023-04-15T06:01:08.060Z,2.10
2023-04-15T06:06:10.279Z,1.23
2023-04-15T06:11:12.548Z,1.08
2023-04-15T06:16:14.774Z,0.98
2023-04-15T06:21:16.976Z,1.40
2023-04-15T06:26:19.060Z,1.40
2023-04-15T06:31:21.249Z,1.67
2023-04-15T06:36:23.326Z,1.77
2023-04-15T06:41:25.696Z,0.63
2023-04-15T06:46:27.988Z,1.70
2023-04-15T06:51:30.661Z,0.82
2023-04-15T06:56:33.722Z,0.73
2023-04-15T07:01:36.438Z,0.98
2023-04-15T07:06:38.924Z,1.15
2023-04-15T07:11:41.048Z,1.83
2023-04-15T07:16:43.185Z,0.70
2023-04-15T07:21:45.341Z,0.55
2023-04-15T07:26:47.412Z,0.40
2023-04-15T07:31:49.445Z,1.52
2023-04-15T07:36:52.233Z,0.75
2023-04-15T07:41:54.298Z,1.08
2023-04-15T07:46:57.392Z,2.45
2023-04-15T07:52:00.289Z,0.70
2023-04-15T07:57:03.371Z,1.05
2023-04-15T08:02:05.579Z,1.10
2023-04-15T08:07:07.841Z,0.80
2023-04-15T08:12:12.698Z,1.40
2023-04-15T08:17:14.748Z,0.73
2023-04-15T08:22:17.959Z,1.13
2023-04-15T08:27:20.674Z,1.48
2023-04-15T08:32:22.894Z,0.73
2023-04-15T08:37:25.012Z,1.83
2023-04-15T08:42:49.345Z,0.50
2023-04-15T08:47:56.634Z,0.90
2023-04-15T08:53:02.351Z,0.60
2023-04-15T08:58:05.893Z,1.95
2023-04-15T09:03:09.108Z,0.90
2023-04-15T09:08:11.320Z,1.10
2023-04-15T09:13:14.273Z,0.90
2023-04-15T09:18:35.139Z,0.85
2023-04-15T09:23:38.670Z,1.00
2023-04-15T09:28:43.669Z,0.75
2023-04-15T09:33:58.892Z,1.08
2023-04-15T09:39:01.267Z,1.50
2023-04-15T09:44:04.913Z,1.77
2023-04-15T09:49:11.613Z,2.22
2023-04-15T09:54:13.713Z,3.30
2023-04-15T09:59:15.755Z,1.45
2023-04-15T10:04:18.527Z,4.28
2023-04-15T10:09:20.825Z,2.85
2023-04-15T10:14:25.974Z,5.75
2023-04-15T10:19:31.713Z,6.03
2023-04-15T10:24:34.251Z,5.13
2023-04-15T10:29:36.795Z,5.35
2023-04-15T10:34:39.002Z,4.72
2023-04-15T10:39:43.490Z,6.38
2023-04-15T10:44:50.072Z,6.70
2023-04-15T10:49:59.768Z,9.23
2023-04-15T10:55:10.822Z,5.90
2023-04-15T11:00:15.027Z,5.88
2023-04-15T11:05:18.241Z,8.52
2023-04-15T11:10:26.375Z,11.07
2023-04-15T11:15:48.193Z,7.28
2023-04-15T11:21:04.473Z,10.82
2023-04-15T11:26:15.601Z,8.20
2023-04-15T11:31:18.636Z,9.77
2023-04-15T11:36:20.825Z,8.50
2023-04-15T11:41:23.816Z,5.05
2023-04-15T11:46:32.423Z,10.52
2023-04-15T11:51:36.051Z,11.20
2023-04-15T11:56:38.275Z,8.43
2023-04-15T12:01:42.469Z,8.68
2023-04-15T12:06:45.646Z,8.63
2023-04-15T12:11:55.380Z,8.20
2023-04-15T12:17:00.469Z,9.90
2023-04-15T12:22:06.770Z,11.45
2023-04-15T12:27:11.607Z,9.68
2023-04-15T12:32:20.000Z,13.68
2023-04-15T12:37:22.566Z,6.20
2023-04-15T12:42:24.729Z,10.32
2023-04-15T12:47:26.874Z,13.73
2023-04-15T12:52:29.119Z,9.60
2023-04-15T12:57:31.342Z,10.52
2023-04-15T13:02:33.922Z,10.60
2023-04-15T13:07:36.622Z,12.65
2023-04-15T13:12:38.680Z,10.30
2023-04-15T13:17:40.772Z,8.20
2023-04-15T13:22:42.841Z,12.02
2023-04-15T13:27:44.979Z,12.32
2023-04-15T13:32:48.772Z,7.85
2023-04-15T13:37:54.197Z,11.20
2023-04-15T13:42:56.459Z,9.93
2023-04-15T13:47:58.581Z,9.23
2023-04-15T13:53:00.704Z,10.13
2023-04-15T13:58:02.729Z,11.35
2023-04-15T14:03:05.662Z,10.85
2023-04-15T14:08:07.864Z,9.68
2023-04-15T14:13:10.131Z,12.00
2023-04-15T14:18:12.343Z,13.38
2023-04-15T14:23:14.605Z,12.50
2023-04-15T14:28:16.831Z,12.63
2023-04-15T14:33:19.343Z,15.75
2023-04-15T14:38:22.836Z,10.27
2023-04-15T14:43:24.972Z,11.02
2023-04-15T14:48:27.137Z,13.00
2023-04-15T14:53:29.239Z,10.30
2023-04-15T14:58:31.495Z,8.80
2023-04-15T15:03:34.079Z,9.80
2023-04-15T15:08:37.134Z,11.05
2023-04-15T15:13:39.312Z,14.63
2023-04-15T15:18:41.428Z,13.63
2023-04-15T15:23:43.586Z,12.98
2023-04-15T15:28:46.297Z,12.93
2023-04-15T15:33:48.572Z,10.00
2023-04-15T15:38:50.885Z,9.80
2023-04-15T15:43:54.644Z,14.57
2023-04-15T15:48:56.968Z,11.23
2023-04-15T15:53:59.049Z,14.23
2023-04-15T15:59:01.169Z,16.33
2023-04-15T16:04:03.504Z,7.93
2023-04-15T16:09:06.250Z,7.30
2023-04-15T16:14:08.615Z,10.35
2023-04-15T16:19:10.840Z,13.25
2023-04-15T16:24:12.900Z,9.45
2023-04-15T16:29:14.958Z,6.35
2023-04-15T16:34:17.823Z,11.13
2023-04-15T16:39:20.023Z,14.25
2023-04-15T16:44:22.159Z,5.95
2023-04-15T16:49:24.232Z,6.53
2023-04-15T16:54:26.326Z,7.15
2023-04-15T16:59:28.564Z,10.68
2023-04-15T17:04:31.083Z,6.90
2023-04-15T17:09:33.255Z,5.65
2023-04-15T17:14:35.548Z,5.50
2023-04-15T17:19:37.987Z,7.50
2023-04-15T17:24:39.986Z,7.63
2023-04-15T17:29:42.157Z,6.38
2023-04-15T17:34:50.206Z,6.78
2023-04-15T17:39:53.303Z,5.57
2023-04-15T17:44:55.364Z,4.78
2023-04-15T17:49:57.447Z,7.47
2023-04-15T17:54:59.557Z,3.83
2023-04-15T18:00:01.708Z,6.50
2023-04-15T18:05:04.588Z,3.70
2023-04-15T18:10:08.325Z,4.10
2023-04-15T18:15:11.920Z,7.45
2023-04-15T18:20:14.263Z,8.10
2023-04-15T18:25:16.616Z,4.22
2023-04-15T18:30:18.648Z,6.93
2023-04-15T18:35:21.063Z,6.15
2023-04-15T18:40:23.101Z,5.82
2023-04-15T18:45:25.392Z,8.10
2023-04-15T18:50:27.532Z,5.93
2023-04-15T18:55:29.845Z,6.80
2023-04-15T19:00:31.915Z,7.28
2023-04-15T19:05:34.048Z,9.60
2023-04-15T19:10:36.471Z,10.52
2023-04-15T19:15:38.578Z,7.53
2023-04-15T19:20:41.205Z,8.88
2023-04-15T19:25:43.299Z,9.73
2023-04-15T19:30:45.262Z,18.70
2023-04-15T19:35:50.258Z,13.45
2023-04-15T19:40:52.364Z,14.00
2023-04-15T19:45:55.054Z,14.63
2023-04-15T19:50:57.622Z,18.75
2023-04-15T19:55:59.624Z,15.60
2023-04-15T20:01:02.411Z,16.67
2023-04-15T20:06:04.481Z,17.80
2023-04-15T20:11:06.965Z,14.88
2023-04-15T20:16:09.208Z,15.40
2023-04-15T20:21:11.356Z,14.13
2023-04-15T20:26:13.399Z,18.27
2023-04-15T20:31:15.485Z,17.48
2023-04-15T20:36:17.656Z,17.90
2023-04-15T20:41:19.729Z,18.05
2023-04-15T20:46:22.709Z,17.05
2023-04-15T20:51:27.356Z,24.30
2023-04-15T21:01:31.355Z,15.18
2023-04-15T21:06:34.738Z,23.10
2023-04-15T21:16:42.295Z,23.98
2023-04-15T21:21:44.463Z,28.48
2023-04-15T21:26:46.538Z,16.25
2023-04-15T21:31:48.652Z,31.95
2023-04-15T21:36:50.839Z,33.03
2023-04-15T21:41:52.924Z,30.45
2023-04-15T21:46:55.019Z,34.28
2023-04-15T21:52:01.317Z,26.70
2023-04-15T21:57:03.790Z,31.42
2023-04-15T22:02:05.803Z,32.13
2023-04-15T22:07:08.022Z,27.05
2023-04-15T22:12:10.170Z,28.05
2023-04-15T22:17:12.203Z,36.58
2023-04-15T22:22:14.295Z,38.78
2023-04-15T22:27:16.576Z,28.25
2023-04-15T22:32:18.636Z,34.75
2023-04-15T22:37:20.716Z,31.90
2023-04-15T22:42:22.921Z,34.00
2023-04-15T22:47:25.081Z,28.15
2023-04-15T22:52:30.569Z,27.38
2023-04-15T22:57:33.615Z,40.75
2023-04-15T23:02:35.877Z,30.90
2023-04-15T23:07:38.077Z,38.20
2023-04-15T23:12:40.195Z,35.75
2023-04-15T23:17:43.335Z,34.22
2023-04-15T23:22:45.583Z,29.30
2023-04-15T23:27:47.605Z,33.15
2023-04-15T23:32:49.757Z,28.23
2023-04-15T23:37:51.791Z,24.92
2023-04-15T23:42:53.822Z,31.65
2023-04-15T23:47:56.074Z,29.63
2023-04-15T23:52:58.144Z,38.75
2023-04-15T23:58:00.217Z,35.00
